sensor_id;sensor_type;location;lat;lon;timestamp;pressure;altitude;pressure_sealevel;temperature;humidity
64675;BME280;51090;51.512;11.332;2022-08-07T00:00:54;100342.66;;;13.33;100.00
64675;BME280;51090;51.512;11.332;2022-08-07T00:03:19;100325.50;;;13.13;100.00
64675;BME280;51090;51.512;11.332;2022-08-07T00:05:45;100336.06;;;13.06;100.00
64675;BME280;51090;51.512;11.332;2022-08-07T00:08:11;100334.88;;;13.08;100.00
64675;BME280;51090;51.512;11.332;2022-08-07T00:10:37;100327.44;;;13.04;100.00
64675;BME280;51090;51.512;11.332;2022-08-07T00:13:04;100304.25;;;12.90;100.00
64675;BME280;51090;51.512;11.332;2022-08-07T00:15:31;100318.69;;;12.95;100.00
64675;BME280;51090;51.512;11.332;2022-08-07T00:17:57;100323.19;;;12.95;100.00
64675;BME280;51090;51.512;11.332;2022-08-07T00:20:23;100319.38;;;12.89;100.00
64675;BME280;51090;51.512;11.332;2022-08-07T00:22:49;100320.94;;;12.83;100.00
64675;BME280;51090;51.512;11.332;2022-08-07T00:25:15;100310.28;;;12.83;100.00
64675;BME280;51090;51.512;11.332;2022-08-07T00:27:41;100319.28;;;12.82;100.00
64675;BME280;51090;51.512;11.332;2022-08-07T00:30:07;100316.97;;;12.79;100.00
64675;BME280;51090;51.512;11.332;2022-08-07T00:32:33;100311.81;;;12.78;100.00
64675;BME280;51090;51.512;11.332;2022-08-07T00:34:59;100311.00;;;12.77;100.00
64675;BME280;51090;51.512;11.332;2022-08-07T00:37:25;100314.34;;;12.71;100.00
64675;BME280;51090;51.512;11.332;2022-08-07T00:39:51;100313.25;;;12.66;100.00
64675;BME280;51090;51.512;11.332;2022-08-07T00:42:20;100303.13;;;12.61;100.00
64675;BME280;51090;51.512;11.332;2022-08-07T00:44:46;100318.78;;;12.56;100.00
64675;BME280;51090;51.512;11.332;2022-08-07T00:47:12;100310.63;;;12.57;100.00
64675;BME280;51090;51.512;11.332;2022-08-07T00:49:38;100306.34;;;12.56;100.00
64675;BME280;51090;51.512;11.332;2022-08-07T00:52:08;100311.66;;;12.56;100.00
64675;BME280;51090;51.512;11.332;2022-08-07T00:54:34;100314.31;;;12.56;100.00
64675;BME280;51090;51.512;11.332;2022-08-07T00:57:00;100305.31;;;12.57;100.00
64675;BME280;51090;51.512;11.332;2022-08-07T00:59:26;100292.91;;;12.50;100.00
64675;BME280;51090;51.512;11.332;2022-08-07T01:01:52;100302.13;;;12.62;100.00
64675;BME280;51090;51.512;11.332;2022-08-07T01:04:18;100305.78;;;12.61;100.00
64675;BME280;51090;51.512;11.332;2022-08-07T01:06:44;100301.94;;;12.63;100.00
64675;BME280;51090;51.512;11.332;2022-08-07T01:09:11;100303.78;;;12.63;100.00
64675;BME280;51090;51.512;11.332;2022-08-07T01:11:37;100305.63;;;12.62;100.00
64675;BME280;51090;51.512;11.332;2022-08-07T01:14:04;100289.06;;;12.52;100.00
64675;BME280;51090;51.512;11.332;2022-08-07T01:16:31;100286.56;;;12.51;100.00
64675;BME280;51090;51.512;11.332;2022-08-07T01:18:57;100294.91;;;12.48;100.00
64675;BME280;51090;51.512;11.332;2022-08-07T01:21:23;100300.13;;;12.41;100.00
64675;BME280;51090;51.512;11.332;2022-08-07T01:23:50;100295.13;;;12.38;100.00
64675;BME280;51090;51.512;11.332;2022-08-07T01:26:17;100294.13;;;12.39;100.00
64675;BME280;51090;51.512;11.332;2022-08-07T01:28:48;100297.97;;;12.36;100.00
64675;BME280;51090;51.512;11.332;2022-08-07T01:31:15;100294.00;;;12.32;100.00
64675;BME280;51090;51.512;11.332;2022-08-07T01:33:42;100293.34;;;12.30;100.00
64675;BME280;51090;51.512;11.332;2022-08-07T01:36:08;100302.50;;;12.28;100.00
64675;BME280;51090;51.512;11.332;2022-08-07T01:38:37;100297.88;;;12.22;100.00
64675;BME280;51090;51.512;11.332;2022-08-07T01:41:05;100303.72;;;12.17;100.00
64675;BME280;51090;51.512;11.332;2022-08-07T01:43:34;100289.13;;;12.13;100.00
64675;BME280;51090;51.512;11.332;2022-08-07T01:46:01;100289.94;;;12.13;100.00
64675;BME280;51090;51.512;11.332;2022-08-07T01:48:27;100276.03;;;12.03;100.00
64675;BME280;51090;51.512;11.332;2022-08-07T01:51:07;100296.25;;;12.12;100.00
64675;BME280;51090;51.512;11.332;2022-08-07T01:53:35;100293.44;;;12.14;100.00
64675;BME280;51090;51.512;11.332;2022-08-07T01:56:09;100292.59;;;12.13;100.00
64675;BME280;51090;51.512;11.332;2022-08-07T01:58:43;100276.03;;;12.03;100.00
64675;BME280;51090;51.512;11.332;2022-08-07T02:01:16;100289.28;;;12.11;100.00
64675;BME280;51090;51.512;11.332;2022-08-07T02:03:50;100292.78;;;12.12;100.00
64675;BME280;51090;51.512;11.332;2022-08-07T02:06:19;100289.34;;;12.03;100.00
64675;BME280;51090;51.512;11.332;2022-08-07T02:08:47;100300.59;;;12.13;100.00
64675;BME280;51090;51.512;11.332;2022-08-07T02:11:13;100286.78;;;12.10;100.00
64675;BME280;51090;51.512;11.332;2022-08-07T02:13:41;100285.31;;;12.07;100.00
64675;BME280;51090;51.512;11.332;2022-08-07T02:16:09;100293.28;;;12.07;100.00
64675;BME280;51090;51.512;11.332;2022-08-07T02:18:36;100294.28;;;12.06;100.00
64675;BME280;51090;51.512;11.332;2022-08-07T02:21:08;100277.41;;;11.91;100.00
64675;BME280;51090;51.512;11.332;2022-08-07T02:23:38;100272.25;;;11.89;100.00
64675;BME280;51090;51.512;11.332;2022-08-07T02:26:06;100295.16;;;11.98;100.00
64675;BME280;51090;51.512;11.332;2022-08-07T02:28:33;100292.34;;;11.92;100.00
64675;BME280;51090;51.512;11.332;2022-08-07T02:31:04;100286.88;;;11.85;100.00
64675;BME280;51090;51.512;11.332;2022-08-07T02:33:30;100293.38;;;11.83;100.00
64675;BME280;51090;51.512;11.332;2022-08-07T02:35:58;100289.03;;;11.82;100.00
64675;BME280;51090;51.512;11.332;2022-08-07T02:38:27;100282.59;;;11.76;100.00
64675;BME280;51090;51.512;11.332;2022-08-07T02:40:55;100275.78;;;11.73;100.00
64675;BME280;51090;51.512;11.332;2022-08-07T02:43:21;100285.09;;;11.77;100.00
64675;BME280;51090;51.512;11.332;2022-08-07T02:45:48;100282.59;;;11.76;100.00
64675;BME280;51090;51.512;11.332;2022-08-07T02:48:15;100262.53;;;11.65;100.00
64675;BME280;51090;51.512;11.332;2022-08-07T02:50:43;100269.84;;;11.71;100.00
64675;BME280;51090;51.512;11.332;2022-08-07T02:53:30;100274.81;;;11.74;100.00
64675;BME280;51090;51.512;11.332;2022-08-07T02:55:58;100285.78;;;11.71;100.00
64675;BME280;51090;51.512;11.332;2022-08-07T02:58:26;100279.97;;;11.68;100.00
64675;BME280;51090;51.512;11.332;2022-08-07T03:00:56;100272.50;;;11.63;100.00
64675;BME280;51090;51.512;11.332;2022-08-07T03:03:24;100279.66;;;11.63;100.00
64675;BME280;51090;51.512;11.332;2022-08-07T03:05:53;100281.34;;;11.64;100.00
64675;BME280;51090;51.512;11.332;2022-08-07T03:08:21;100277.81;;;11.63;100.00
64675;BME280;51090;51.512;11.332;2022-08-07T03:10:47;100282.16;;;11.64;100.00
64675;BME280;51090;51.512;11.332;2022-08-07T03:13:15;100272.69;;;11.62;100.00
64675;BME280;51090;51.512;11.332;2022-08-07T03:15:42;100282.31;;;11.63;100.00
64675;BME280;51090;51.512;11.332;2022-08-07T03:18:09;100280.47;;;11.63;100.00
64675;BME280;51090;51.512;11.332;2022-08-07T03:20:35;100283.13;;;11.63;100.00
64675;BME280;51090;51.512;11.332;2022-08-07T03:23:02;100289.47;;;11.62;100.00
64675;BME280;51090;51.512;11.332;2022-08-07T03:25:28;100291.44;;;11.60;100.00
64675;BME280;51090;51.512;11.332;2022-08-07T03:27:56;100288.78;;;11.60;100.00
64675;BME280;51090;51.512;11.332;2022-08-07T03:30:24;100287.81;;;11.61;100.00
64675;BME280;51090;51.512;11.332;2022-08-07T03:32:52;100280.34;;;11.57;100.00
64675;BME280;51090;51.512;11.332;2022-08-07T03:35:23;100282.19;;;11.56;100.00
64675;BME280;51090;51.512;11.332;2022-08-07T03:37:56;100277.53;;;11.50;100.00
64675;BME280;51090;51.512;11.332;2022-08-07T03:40:24;100295.31;;;11.49;100.00
64675;BME280;51090;51.512;11.332;2022-08-07T03:42:51;100285.19;;;11.45;100.00
64675;BME280;51090;51.512;11.332;2022-08-07T03:45:19;100288.50;;;11.47;100.00
64675;BME280;51090;51.512;11.332;2022-08-07T03:47:45;100295.66;;;11.46;100.00
64675;BME280;51090;51.512;11.332;2022-08-07T03:50:11;100300.28;;;11.44;100.00
64675;BME280;51090;51.512;11.332;2022-08-07T03:52:37;100292.47;;;11.43;100.00
64675;BME280;51090;51.512;11.332;2022-08-07T03:55:04;100300.28;;;11.44;100.00
64675;BME280;51090;51.512;11.332;2022-08-07T03:57:32;100302.78;;;11.46;100.00
64675;BME280;51090;51.512;11.332;2022-08-07T03:59:58;100287.16;;;11.43;100.00
64675;BME280;51090;51.512;11.332;2022-08-07T04:02:24;100291.31;;;11.45;100.00
64675;BME280;51090;51.512;11.332;2022-08-07T04:04:50;100296.47;;;11.47;100.00
64675;BME280;51090;51.512;11.332;2022-08-07T04:07:17;100285.69;;;11.48;100.00
64675;BME280;51090;51.512;11.332;2022-08-07T04:09:47;100288.97;;;11.50;100.00
64675;BME280;51090;51.512;11.332;2022-08-07T04:12:14;100276.88;;;11.48;100.00
64675;BME280;51090;51.512;11.332;2022-08-07T04:14:41;100290.16;;;11.56;100.00
64675;BME280;51090;51.512;11.332;2022-08-07T04:17:07;100284.84;;;11.56;100.00
64675;BME280;51090;51.512;11.332;2022-08-07T04:19:34;100289.31;;;11.55;100.00
64675;BME280;51090;51.512;11.332;2022-08-07T04:22:01;100289.13;;;11.57;100.00
64675;BME280;51090;51.512;11.332;2022-08-07T04:24:27;100292.13;;;11.62;100.00
64675;BME280;51090;51.512;11.332;2022-08-07T04:26:54;100294.78;;;11.62;100.00
64675;BME280;51090;51.512;11.332;2022-08-07T04:29:20;100283.63;;;11.67;100.00
64675;BME280;51090;51.512;11.332;2022-08-07T04:31:46;100295.56;;;11.71;100.00
64675;BME280;51090;51.512;11.332;2022-08-07T04:34:12;100276.84;;;11.64;100.00
64675;BME280;51090;51.512;11.332;2022-08-07T04:36:39;100292.06;;;11.78;100.00
64675;BME280;51090;51.512;11.332;2022-08-07T04:39:05;100298.03;;;11.81;100.00
64675;BME280;51090;51.512;11.332;2022-08-07T04:41:31;100289.22;;;11.80;100.00
64675;BME280;51090;51.512;11.332;2022-08-07T04:43:57;100294.03;;;11.85;100.00
64675;BME280;51090;51.512;11.332;2022-08-07T04:49:40;100305.66;;;11.92;100.00
64675;BME280;51090;51.512;11.332;2022-08-07T04:52:58;100304.16;;;11.97;100.00
64675;BME280;51090;51.512;11.332;2022-08-07T04:55:12;100303.31;;;11.97;100.00
64675;BME280;51090;51.512;11.332;2022-08-07T04:58:21;100304.94;;;12.06;100.00
64675;BME280;51090;51.512;11.332;2022-08-07T05:00:59;100299.63;;;12.06;100.00
64675;BME280;51090;51.512;11.332;2022-08-07T05:03:46;100307.84;;;12.19;100.00
64675;BME280;51090;51.512;11.332;2022-08-07T05:06:31;100308.00;;;12.26;100.00
64675;BME280;51090;51.512;11.332;2022-08-07T05:09:43;100314.84;;;12.52;100.00
64675;BME280;51090;51.512;11.332;2022-08-07T05:12:02;100314.41;;;12.63;100.00
64675;BME280;51090;51.512;11.332;2022-08-07T05:14:44;100317.50;;;12.75;100.00
64675;BME280;51090;51.512;11.332;2022-08-07T05:17:15;100315.16;;;12.80;100.00
64675;BME280;51090;51.512;11.332;2022-08-07T05:19:48;100297.88;;;12.76;100.00
64675;BME280;51090;51.512;11.332;2022-08-07T05:22:17;100310.03;;;12.93;100.00
64675;BME280;51090;51.512;11.332;2022-08-07T05:24:45;100308.97;;;13.02;100.00
64675;BME280;51090;51.512;11.332;2022-08-07T05:27:14;100318.53;;;13.12;100.00
64675;BME280;51090;51.512;11.332;2022-08-07T05:29:42;100309.13;;;13.24;100.00
64675;BME280;51090;51.512;11.332;2022-08-07T05:32:10;100312.19;;;13.36;100.00
64675;BME280;51090;51.512;11.332;2022-08-07T05:34:39;100313.59;;;13.46;100.00
64675;BME280;51090;51.512;11.332;2022-08-07T05:37:06;100306.16;;;13.57;100.00
64675;BME280;51090;51.512;11.332;2022-08-07T05:39:34;100310.84;;;13.69;100.00
64675;BME280;51090;51.512;11.332;2022-08-07T05:42:02;100319.41;;;13.80;100.00
64675;BME280;51090;51.512;11.332;2022-08-07T05:44:30;100318.09;;;13.90;100.00
64675;BME280;51090;51.512;11.332;2022-08-07T05:46:58;100319.28;;;14.03;100.00
64675;BME280;51090;51.512;11.332;2022-08-07T05:49:25;100319.84;;;14.13;100.00
64675;BME280;51090;51.512;11.332;2022-08-07T05:51:52;100314.84;;;14.25;100.00
64675;BME280;51090;51.512;11.332;2022-08-07T05:54:18;100309.63;;;14.38;100.00
64675;BME280;51090;51.512;11.332;2022-08-07T05:56:45;100317.63;;;14.53;100.00
64675;BME280;51090;51.512;11.332;2022-08-07T05:59:17;100312.19;;;14.61;100.00
64675;BME280;51090;51.512;11.332;2022-08-07T06:01:44;100308.81;;;14.74;100.00
64675;BME280;51090;51.512;11.332;2022-08-07T06:04:13;100307.28;;;14.86;100.00
64675;BME280;51090;51.512;11.332;2022-08-07T06:06:40;100311.75;;;15.00;100.00
64675;BME280;51090;51.512;11.332;2022-08-07T06:09:06;100323.34;;;15.14;100.00
64675;BME280;51090;51.512;11.332;2022-08-07T06:11:33;100318.31;;;15.26;100.00
64675;BME280;51090;51.512;11.332;2022-08-07T06:13:59;100315.09;;;15.37;100.00
64675;BME280;51090;51.512;11.332;2022-08-07T06:16:28;100318.91;;;15.50;100.00
64675;BME280;51090;51.512;11.332;2022-08-07T06:18:58;100318.56;;;15.59;100.00
64675;BME280;51090;51.512;11.332;2022-08-07T06:21:26;100316.22;;;15.78;100.00
64675;BME280;51090;51.512;11.332;2022-08-07T06:23:52;100315.84;;;15.87;100.00
64675;BME280;51090;51.512;11.332;2022-08-07T06:26:18;100305.59;;;15.98;100.00
64675;BME280;51090;51.512;11.332;2022-08-07T06:28:53;100318.84;;;16.13;100.00
64675;BME280;51090;51.512;11.332;2022-08-07T06:31:20;100312.72;;;16.25;100.00
64675;BME280;51090;51.512;11.332;2022-08-07T06:33:47;100318.97;;;16.39;100.00
64675;BME280;51090;51.512;11.332;2022-08-07T06:36:12;100310.34;;;16.50;100.00
64675;BME280;51090;51.512;11.332;2022-08-07T06:38:40;100304.16;;;16.57;100.00
64675;BME280;51090;51.512;11.332;2022-08-07T06:41:14;100317.22;;;16.80;100.00
64675;BME280;51090;51.512;11.332;2022-08-07T06:43:43;100315.81;;;16.90;100.00
64675;BME280;51090;51.512;11.332;2022-08-07T06:46:10;100312.69;;;17.00;100.00
64675;BME280;51090;51.512;11.332;2022-08-07T06:48:36;100319.09;;;17.12;100.00
64675;BME280;51090;51.512;11.332;2022-08-07T06:51:07;100313.31;;;17.22;100.00
64675;BME280;51090;51.512;11.332;2022-08-07T06:53:37;100318.47;;;17.30;100.00
64675;BME280;51090;51.512;11.332;2022-08-07T06:56:04;100312.88;;;17.38;99.55
64675;BME280;51090;51.512;11.332;2022-08-07T06:58:33;100313.28;;;17.49;94.74
64675;BME280;51090;51.512;11.332;2022-08-07T07:01:03;100309.56;;;17.56;94.22
64675;BME280;51090;51.512;11.332;2022-08-07T07:03:32;100307.69;;;17.63;90.21
64675;BME280;51090;51.512;11.332;2022-08-07T07:05:58;100312.41;;;17.75;89.71
64675;BME280;51090;51.512;11.332;2022-08-07T07:08:28;100311.38;;;17.82;88.11
64675;BME280;51090;51.512;11.332;2022-08-07T07:10:55;100309.50;;;17.90;86.82
64675;BME280;51090;51.512;11.332;2022-08-07T07:13:38;100305.38;;;17.94;83.34
64675;BME280;51090;51.512;11.332;2022-08-07T07:16:13;100306.38;;;18.06;80.21
64675;BME280;51090;51.512;11.332;2022-08-07T07:18:42;100310.25;;;18.17;82.33
64675;BME280;51090;51.512;11.332;2022-08-07T07:21:21;100303.59;;;18.26;79.08
64675;BME280;51090;51.512;11.332;2022-08-07T07:23:48;100306.84;;;18.35;80.30
64675;BME280;51090;51.512;11.332;2022-08-07T07:26:17;100309.06;;;18.44;76.76
64675;BME280;51090;51.512;11.332;2022-08-07T07:29:12;100303.47;;;18.53;71.35
64675;BME280;51090;51.512;11.332;2022-08-07T07:31:45;100309.38;;;18.61;75.08
64675;BME280;51090;51.512;11.332;2022-08-07T07:34:15;100304.81;;;18.68;74.07
64675;BME280;51090;51.512;11.332;2022-08-07T07:36:43;100302.50;;;18.72;74.13
64675;BME280;51090;51.512;11.332;2022-08-07T07:39:11;100307.22;;;18.83;73.49
64675;BME280;51090;51.512;11.332;2022-08-07T07:41:40;100297.81;;;18.92;72.46
64675;BME280;51090;51.512;11.332;2022-08-07T07:44:07;100298.59;;;19.00;70.79
64675;BME280;51090;51.512;11.332;2022-08-07T07:46:36;100293.59;;;19.03;69.97
64675;BME280;51090;51.512;11.332;2022-08-07T07:49:04;100296.63;;;19.13;69.20
64675;BME280;51090;51.512;11.332;2022-08-07T07:51:31;100295.50;;;19.21;68.27
64675;BME280;51090;51.512;11.332;2022-08-07T07:53:58;100278.81;;;19.19;67.97
64675;BME280;51090;51.512;11.332;2022-08-07T07:56:27;100288.97;;;19.35;66.61
64675;BME280;51090;51.512;11.332;2022-08-07T07:58:55;100286.25;;;19.42;66.65
64675;BME280;51090;51.512;11.332;2022-08-07T08:01:24;100292.34;;;19.49;65.38
64675;BME280;51090;51.512;11.332;2022-08-07T08:03:53;100288.41;;;19.52;64.97
64675;BME280;51090;51.512;11.332;2022-08-07T08:06:20;100287.28;;;19.59;64.73
64675;BME280;51090;51.512;11.332;2022-08-07T08:08:48;100282.69;;;19.67;62.27
64675;BME280;51090;51.512;11.332;2022-08-07T08:11:15;100287.41;;;19.71;62.32
64675;BME280;51090;51.512;11.332;2022-08-07T08:13:43;100281.94;;;19.78;61.26
64675;BME280;51090;51.512;11.332;2022-08-07T08:16:17;100286.44;;;19.84;59.87
64675;BME280;51090;51.512;11.332;2022-08-07T08:18:45;100277.97;;;19.80;60.39
64675;BME280;51090;51.512;11.332;2022-08-07T08:21:15;100278.66;;;19.94;59.76
64675;BME280;51090;51.512;11.332;2022-08-07T08:24:01;100282.66;;;20.04;58.80
64675;BME280;51090;51.512;11.332;2022-08-07T08:26:48;100284.47;;;20.10;59.25
64675;BME280;51090;51.512;11.332;2022-08-07T08:32:33;100276.22;;;20.23;56.31
64675;BME280;51090;51.512;11.332;2022-08-07T08:35:00;100277.09;;;20.35;55.74
64675;BME280;51090;51.512;11.332;2022-08-07T08:37:30;100280.03;;;20.45;52.30
64675;BME280;51090;51.512;11.332;2022-08-07T08:39:59;100288.56;;;20.61;55.38
64675;BME280;51090;51.512;11.332;2022-08-07T08:42:42;100284.59;;;20.75;53.43
64675;BME280;51090;51.512;11.332;2022-08-07T08:45:47;100282.19;;;20.97;50.40
64675;BME280;51090;51.512;11.332;2022-08-07T08:48:31;100285.13;;;21.19;51.80
64675;BME280;51090;51.512;11.332;2022-08-07T08:51:09;100251.25;;;21.35;50.65
64675;BME280;51090;51.512;11.332;2022-08-07T08:54:31;100273.97;;;21.74;48.22
64675;BME280;51090;51.512;11.332;2022-08-07T08:57:03;100277.91;;;21.95;49.64
64675;BME280;51090;51.512;11.332;2022-08-07T09:02:33;100270.47;;;22.43;46.89
64675;BME280;51090;51.512;11.332;2022-08-07T09:11:23;100265.91;;;22.60;46.59
64675;BME280;51090;51.512;11.332;2022-08-07T09:16:35;100259.13;;;23.25;44.63
64675;BME280;51090;51.512;11.332;2022-08-07T09:25:49;100254.03;;;23.29;37.82
64675;BME280;51090;51.512;11.332;2022-08-07T09:28:34;100252.25;;;23.01;39.48
64675;BME280;51090;51.512;11.332;2022-08-07T09:34:19;100248.59;;;23.07;38.30
64675;BME280;51090;51.512;11.332;2022-08-07T09:37:06;100242.16;;;22.96;38.51
64675;BME280;51090;51.512;11.332;2022-08-07T09:42:47;100242.41;;;22.61;40.76
64675;BME280;51090;51.512;11.332;2022-08-07T09:48:37;100237.09;;;22.21;42.02
64675;BME280;51090;51.512;11.332;2022-08-07T09:51:54;100232.69;;;22.31;43.23
64675;BME280;51090;51.512;11.332;2022-08-07T09:54:54;100233.47;;;22.77;40.86
64675;BME280;51090;51.512;11.332;2022-08-07T10:00:26;100225.41;;;23.55;38.93
64675;BME280;51090;51.512;11.332;2022-08-07T10:06:37;100211.53;;;24.18;38.31
64675;BME280;51090;51.512;11.332;2022-08-07T10:09:08;100208.41;;;24.31;36.88
64675;BME280;51090;51.512;11.332;2022-08-07T10:12:11;100207.19;;;24.44;35.80
64675;BME280;51090;51.512;11.332;2022-08-07T10:21:27;100187.22;;;24.55;33.57
64675;BME280;51090;51.512;11.332;2022-08-07T10:36:47;100169.22;;;24.44;34.75
64675;BME280;51090;51.512;11.332;2022-08-07T10:39:45;100165.81;;;24.26;34.09
64675;BME280;51090;51.512;11.332;2022-08-07T10:42:40;100157.25;;;24.07;34.79
64675;BME280;51090;51.512;11.332;2022-08-07T10:45:30;100156.25;;;23.91;33.97
64675;BME280;51090;51.512;11.332;2022-08-07T10:50:51;100152.13;;;23.84;36.97
64675;BME280;51090;51.512;11.332;2022-08-07T10:54:01;100145.94;;;23.88;33.60
64675;BME280;51090;51.512;11.332;2022-08-07T10:57:09;100143.75;;;23.85;34.36
64675;BME280;51090;51.512;11.332;2022-08-07T11:00:16;100134.50;;;23.81;35.67
64675;BME280;51090;51.512;11.332;2022-08-07T11:03:10;100131.31;;;23.84;34.91
64675;BME280;51090;51.512;11.332;2022-08-07T11:06:04;100119.19;;;23.70;34.10
64675;BME280;51090;51.512;11.332;2022-08-07T11:09:01;100142.47;;;23.71;34.31
64675;BME280;51090;51.512;11.332;2022-08-07T11:14:21;100128.47;;;23.74;35.64
64675;BME280;51090;51.512;11.332;2022-08-07T11:16:58;100127.44;;;23.80;35.51
64675;BME280;51090;51.512;11.332;2022-08-07T11:19:52;100133.50;;;23.87;36.27
64675;BME280;51090;51.512;11.332;2022-08-07T11:25:15;100119.66;;;23.89;37.33
64675;BME280;51090;51.512;11.332;2022-08-07T11:30:57;100120.75;;;23.88;34.53
64675;BME280;51090;51.512;11.332;2022-08-07T11:34:08;100121.31;;;23.90;35.30
64675;BME280;51090;51.512;11.332;2022-08-07T11:43:23;100117.06;;;23.99;33.90
64675;BME280;51090;51.512;11.332;2022-08-07T11:46:13;100113.16;;;23.85;35.61
64675;BME280;51090;51.512;11.332;2022-08-07T11:52:02;100102.78;;;23.77;33.64
64675;BME280;51090;51.512;11.332;2022-08-07T11:58:27;100094.53;;;23.94;34.59
64675;BME280;51090;51.512;11.332;2022-08-07T12:01:13;100099.78;;;24.05;33.75
64675;BME280;51090;51.512;11.332;2022-08-07T12:04:30;100089.84;;;24.16;35.65
64675;BME280;51090;51.512;11.332;2022-08-07T12:07:16;100080.34;;;24.13;34.34
64675;BME280;51090;51.512;11.332;2022-08-07T12:12:41;100086.06;;;24.17;34.92
64675;BME280;51090;51.512;11.332;2022-08-07T12:15:16;100079.81;;;24.17;32.89
64675;BME280;51090;51.512;11.332;2022-08-07T12:17:56;100079.59;;;24.18;33.96
64675;BME280;51090;51.512;11.332;2022-08-07T12:20:43;100073.44;;;24.28;34.60
64675;BME280;51090;51.512;11.332;2022-08-07T12:26:48;100062.63;;;24.33;32.09
64675;BME280;51090;51.512;11.332;2022-08-07T12:29:37;100081.34;;;24.40;33.96
64675;BME280;51090;51.512;11.332;2022-08-07T12:32:12;100082.97;;;24.36;34.89
64675;BME280;51090;51.512;11.332;2022-08-07T12:34:41;100073.16;;;24.29;33.24
64675;BME280;51090;51.512;11.332;2022-08-07T12:37:10;100064.22;;;24.29;33.78
64675;BME280;51090;51.512;11.332;2022-08-07T12:39:39;100065.03;;;24.29;33.58
64675;BME280;51090;51.512;11.332;2022-08-07T12:42:07;100058.56;;;24.36;34.11
64675;BME280;51090;51.512;11.332;2022-08-07T12:44:35;100053.16;;;24.36;34.10
64675;BME280;51090;51.512;11.332;2022-08-07T12:47:37;100056.41;;;24.38;34.10
64675;BME280;51090;51.512;11.332;2022-08-07T12:50:34;100051.00;;;24.43;31.28
64675;BME280;51090;51.512;11.332;2022-08-07T12:53:40;100047.03;;;24.50;32.01
64675;BME280;51090;51.512;11.332;2022-08-07T12:56:42;100046.28;;;24.60;33.25
64675;BME280;51090;51.512;11.332;2022-08-07T12:59:28;100039.09;;;24.44;30.39
64675;BME280;51090;51.512;11.332;2022-08-07T13:02:10;100040.69;;;24.40;30.81
64675;BME280;51090;51.512;11.332;2022-08-07T13:14:09;100027.78;;;24.52;31.44
64675;BME280;51090;51.512;11.332;2022-08-07T13:17:11;100024.25;;;24.46;32.33
64675;BME280;51090;51.512;11.332;2022-08-07T13:24:54;100025.22;;;24.77;31.69
64675;BME280;51090;51.512;11.332;2022-08-07T13:27:37;100024.94;;;24.74;31.42
64675;BME280;51090;51.512;11.332;2022-08-07T13:30:07;100025.97;;;24.68;31.70
64675;BME280;51090;51.512;11.332;2022-08-07T13:35:28;100027.38;;;24.75;30.46
64675;BME280;51090;51.512;11.332;2022-08-07T13:43:31;100017.31;;;24.76;31.29
64675;BME280;51090;51.512;11.332;2022-08-07T13:46:01;100007.88;;;24.84;31.92
64675;BME280;51090;51.512;11.332;2022-08-07T13:48:30;100008.72;;;24.94;32.58
64675;BME280;51090;51.512;11.332;2022-08-07T13:50:57;100008.44;;;24.91;30.99
64675;BME280;51090;51.512;11.332;2022-08-07T13:53:39;100012.53;;;24.93;30.26
64675;BME280;51090;51.512;11.332;2022-08-07T13:56:08;100001.38;;;24.85;31.87
64675;BME280;51090;51.512;11.332;2022-08-07T13:58:40;100004.91;;;24.90;32.10
64675;BME280;51090;51.512;11.332;2022-08-07T14:01:52;100003.59;;;24.98;30.22
64675;BME280;51090;51.512;11.332;2022-08-07T14:04:22;99999.00;;;25.04;31.88
64675;BME280;51090;51.512;11.332;2022-08-07T14:06:48;99996.03;;;25.10;31.67
64675;BME280;51090;51.512;11.332;2022-08-07T14:09:23;99994.41;;;25.14;30.99
64675;BME280;51090;51.512;11.332;2022-08-07T14:11:58;99987.91;;;25.15;31.75
64675;BME280;51090;51.512;11.332;2022-08-07T14:14:43;99986.59;;;25.23;31.48
64675;BME280;51090;51.512;11.332;2022-08-07T14:17:13;99978.72;;;25.27;31.42
64675;BME280;51090;51.512;11.332;2022-08-07T14:19:48;99983.06;;;25.28;29.18
64675;BME280;51090;51.512;11.332;2022-08-07T14:22:21;99979.00;;;25.30;31.23
64675;BME280;51090;51.512;11.332;2022-08-07T14:24:59;99976.28;;;25.35;35.67
64675;BME280;51090;51.512;11.332;2022-08-07T14:27:34;99981.44;;;25.27;33.14
64675;BME280;51090;51.512;11.332;2022-08-07T14:30:06;99977.94;;;25.31;35.73
64675;BME280;51090;51.512;11.332;2022-08-07T14:32:39;99983.06;;;25.33;34.53
64675;BME280;51090;51.512;11.332;2022-08-07T14:35:23;99971.13;;;25.29;32.78
64675;BME280;51090;51.512;11.332;2022-08-07T14:37:50;99979.00;;;25.30;33.83
64675;BME280;51090;51.512;11.332;2022-08-07T14:40:21;99976.03;;;25.32;33.39
64675;BME280;51090;51.512;11.332;2022-08-07T14:42:57;99967.06;;;25.36;33.03
64675;BME280;51090;51.512;11.332;2022-08-07T14:45:49;99975.22;;;25.47;31.45
64675;BME280;51090;51.512;11.332;2022-08-07T14:48:21;99972.75;;;25.40;32.78
64675;BME280;51090;51.512;11.332;2022-08-07T14:50:53;99961.34;;;25.23;32.59
64675;BME280;51090;51.512;11.332;2022-08-07T14:53:23;99962.38;;;25.06;34.15
64675;BME280;51090;51.512;11.332;2022-08-07T14:55:51;99965.34;;;25.05;34.50
64675;BME280;51090;51.512;11.332;2022-08-07T14:58:24;99965.09;;;25.11;33.03
64675;BME280;51090;51.512;11.332;2022-08-07T15:00:52;99957.75;;;25.12;31.37